Ho Chi Minh, Viet Nam

7:56 AM ICT on September 03, 2014 (GMT +0700)
Tansonnhat | Change Station
CLOSE
Current Station
Airport
Location: Ho Chi Minh,
Elevation: 62 ft
Nearby Weather Stations

Elev 62 ft 10.82 °N, 106.67 °E | Updated 26 minutes ago

Partly Cloudy
Partly Cloudy
82 °F
Feels Like 90 °F
N
6
Wind Variable Wind from WSW

Today
High -- | Low -- °F
--% Chance of Precip.
Yesterday
High -- | Low -- °F
Precip. -- in
5:43 AM 6:01 PM
First Quarter, 56% visible
Pressure 29.89 in
Visibility 6.2 miles
Clouds Few 2000 ft
Heat Index 90 °F
Dew Point 75 °F
Humidity 79%
Rainfall 0.00 in
Snow Depth Not available.
UV 3 out of 12
Pollen Not available.
Air Quality Not available.
Flu Activity Not available.
METAR VVTS 030030Z 24005KT 220V280 9999 FEW020 28/24 Q1012 NOSIG

More Conditions Fewer Conditions

Pressure 29.89 in
Visibility 6.2 miles
Clouds Few 2000 ft
Heat Index 90 °F
Dew Point 75 °F
Humidity 79%
Rainfall 0.00 in
Snow Depth Not available.
UV 3 out of 12
Pollen Not available.
Air Quality Not available.
Flu Activity Not available.
METAR VVTS 030030Z 24005KT 220V280 9999 FEW020 28/24 Q1012 NOSIG

More Conditions Fewer Conditions

10-Day Weather Forecast

Almanac

Astronomy

Sep. 03, 2014 Rise Set
Actual Time 5:43 AM ICT 6:01 PM ICT
Civil Twilight 5:22 AM ICT 6:23 PM ICT
Nautical Twilight 4:57 AM ICT 6:47 PM ICT
Astronomical Twilight 4:32 AM ICT 7:12 PM ICT
Moon 12:39 PM ICT No Moon Set
Length of Visible Light 13h 00m
Length of Day
12h 18m
Tomorrow will be 0m 35s shorter.
First Quarter, 56% of the Moon is Illuminated
Sep 2
First Quarter
Sep 8
Full
Sep 15
Last Quarter
Sep 24
New
Oct 1
First Quarter

Yesterday's Extremes

Country Highs Country Lows

Community

WunderPhotos

Upload Photos

1,749,808 photos uploaded!

Nearby

Snow Depth

Not available.

Earthquake Activity

City Distance Mag. Time & Date
No recent earthquake activity has been reported nearby.
Minimum magnitude displayed is 2.5.

Coastal Water Temperatures

Place Temperature
No Stations Reporting

Nearby Weather Stations